Time;durP1;ratioP1;P1;durP2;ratioP2;P2;SDS_P1;SDS_P2;PMS_P1;PMS_P2;Temp;Humidity;BMP_temperature;BMP_pressure;BME280_temperature;BME280_humidity;BME280_pressure;Samples;Min_cycle;Max_cycle;Signal;HPM_P1;HPM_P2
2022/03/16 00:01:20;;;;;;;76.53;13.30;;;;;;;;;;4980269;28;20672;-82
2022/03/16 00:03:48;;;;;;;103.63;13.00;;;;;;;;;;4981439;28;20336;-79
2022/03/16 00:06:15;;;;;;;105.27;13.23;;;;;;;;;;4984312;28;20241;-82
2022/03/16 00:08:42;;;;;;;70.67;12.37;;;;;;;;;;4986252;28;20222;-82
2022/03/16 00:11:09;;;;;;;47.80;12.40;;;;;;;;;;4983358;28;20237;-81
2022/03/16 00:13:38;;;;;;;69.90;12.30;;;;;;;;;;4981757;28;20229;-82
2022/03/16 00:16:05;;;;;;;53.37;12.80;;;;;;;;;;4982538;28;20231;-82
2022/03/16 00:18:32;;;;;;;32.40;10.47;;;;;;;;;;4988816;28;20244;-78
2022/03/16 00:21:00;;;;;;;76.57;12.90;;;;;;;;;;4991757;28;20219;-82
2022/03/16 00:23:27;;;;;;;66.70;12.30;;;;;;;;;;4982950;28;20230;-82
2022/03/16 00:25:55;;;;;;;99.23;12.70;;;;;;;;;;4989935;28;20206;-79
2022/03/16 00:28:22;;;;;;;68.33;12.20;;;;;;;;;;4984258;28;20295;-81
2022/03/16 00:30:50;;;;;;;89.83;12.47;;;;;;;;;;4980909;28;20244;-82
2022/03/16 00:33:18;;;;;;;54.73;11.67;;;;;;;;;;4981129;28;20222;-80
2022/03/16 00:35:45;;;;;;;52.10;11.20;;;;;;;;;;4987676;28;20194;-79
2022/03/16 00:38:13;;;;;;;50.00;10.70;;;;;;;;;;4983232;28;20296;-80
2022/03/16 00:40:41;;;;;;;48.07;11.90;;;;;;;;;;4982912;28;20205;-81
2022/03/16 00:43:08;;;;;;;50.43;11.03;;;;;;;;;;4980180;28;20301;-82
2022/03/16 00:45:35;;;;;;;68.10;11.30;;;;;;;;;;4982615;28;20285;-79
2022/03/16 00:48:04;;;;;;;82.57;12.70;;;;;;;;;;4982522;28;20765;-82
2022/03/16 00:50:32;;;;;;;54.37;10.97;;;;;;;;;;4984222;28;20606;-80
2022/03/16 00:52:59;;;;;;;46.50;10.63;;;;;;;;;;4984471;28;20723;-80
2022/03/16 00:55:26;;;;;;;69.23;14.47;;;;;;;;;;4985865;28;20230;-82
2022/03/16 00:57:53;;;;;;;92.97;14.67;;;;;;;;;;4981440;28;20631;-80
2022/03/16 01:00:20;;;;;;;51.00;11.63;;;;;;;;;;4982378;28;20229;-81
2022/03/16 01:02:48;;;;;;;46.10;11.20;;;;;;;;;;4981125;28;20236;-79
2022/03/16 01:05:16;;;;;;;43.77;10.40;;;;;;;;;;4982592;28;20671;-80
2022/03/16 01:07:43;;;;;;;23.77;9.77;;;;;;;;;;4983616;28;20691;-81
2022/03/16 01:10:11;;;;;;;39.87;10.17;;;;;;;;;;4982326;28;20289;-81
2022/03/16 01:12:38;;;;;;;40.43;12.37;;;;;;;;;;4983556;28;20648;-80
2022/03/16 01:15:06;;;;;;;50.07;10.57;;;;;;;;;;4978782;28;20292;-81
2022/03/16 01:17:33;;;;;;;29.70;9.23;;;;;;;;;;4984175;28;20208;-79
2022/03/16 01:20:00;;;;;;;32.23;10.57;;;;;;;;;;4982248;28;20264;-80
2022/03/16 01:22:29;;;;;;;52.20;9.90;;;;;;;;;;4982959;28;20272;-80
2022/03/16 01:24:56;;;;;;;39.80;10.67;;;;;;;;;;4980956;28;20218;-79
2022/03/16 01:27:23;;;;;;;57.00;11.17;;;;;;;;;;4981825;28;20233;-77
2022/03/16 01:29:50;;;;;;;63.27;11.50;;;;;;;;;;4983503;28;20824;-78
2022/03/16 01:32:18;;;;;;;48.70;10.23;;;;;;;;;;4980943;28;20241;-77
2022/03/16 01:34:45;;;;;;;45.40;10.73;;;;;;;;;;4979761;28;20229;-77
2022/03/16 01:37:12;;;;;;;34.37;10.77;;;;;;;;;;4978287;28;20217;-77
2022/03/16 01:39:41;;;;;;;36.33;10.70;;;;;;;;;;4982339;28;20264;-77
2022/03/16 01:42:08;;;;;;;67.93;11.57;;;;;;;;;;4980399;28;20862;-77
2022/03/16 01:44:42;;;;;;;80.77;11.70;;;;;;;;;;4978274;28;20260;-77
2022/03/16 01:47:10;;;;;;;50.83;10.30;;;;;;;;;;4978671;28;20253;-80
2022/03/16 01:49:37;;;;;;;55.73;10.90;;;;;;;;;;4979953;28;20267;-78
2022/03/16 01:52:05;;;;;;;63.70;10.53;;;;;;;;;;4984500;28;20295;-81
2022/03/16 01:54:32;;;;;;;62.20;10.00;;;;;;;;;;4983725;28;20229;-79
2022/03/16 01:57:01;;;;;;;90.73;11.30;;;;;;;;;;4991674;28;20308;-80
2022/03/16 01:59:28;;;;;;;74.73;10.63;;;;;;;;;;4983744;28;20206;-80
2022/03/16 02:01:55;;;;;;;69.80;10.00;;;;;;;;;;4983002;28;20310;-78
2022/03/16 02:04:22;;;;;;;52.27;10.33;;;;;;;;;;4977611;28;20226;-78
2022/03/16 02:06:50;;;;;;;73.53;15.70;;;;;;;;;;4981382;28;20682;-81
2022/03/16 02:09:17;;;;;;;48.23;10.07;;;;;;;;;;4982833;28;20936;-80
2022/03/16 02:11:44;;;;;;;61.43;11.27;;;;;;;;;;4983119;28;20210;-80
2022/03/16 02:14:13;;;;;;;46.93;10.60;;;;;;;;;;4980284;28;20221;-80
2022/03/16 02:16:41;;;;;;;48.83;10.10;;;;;;;;;;4988728;28;20268;-80
2022/03/16 02:19:08;;;;;;;53.70;11.57;;;;;;;;;;4982994;28;20206;-80
2022/03/16 02:21:37;;;;;;;43.10;9.73;;;;;;;;;;4986006;28;20218;-80
2022/03/16 02:24:06;;;;;;;74.60;11.97;;;;;;;;;;4982708;28;20686;-80
2022/03/16 02:26:34;;;;;;;89.87;11.33;;;;;;;;;;4984337;28;20210;-81
2022/03/16 02:29:01;;;;;;;90.67;11.13;;;;;;;;;;4986033;28;20648;-82
2022/03/16 02:31:29;;;;;;;51.93;10.10;;;;;;;;;;4985885;28;20332;-81
2022/03/16 02:33:56;;;;;;;92.17;10.83;;;;;;;;;;4986728;28;20225;-81
2022/03/16 02:36:23;;;;;;;50.13;9.60;;;;;;;;;;4987554;28;20297;-80
2022/03/16 02:38:50;;;;;;;66.33;9.27;;;;;;;;;;4989093;28;20270;-80
2022/03/16 02:41:19;;;;;;;50.87;10.17;;;;;;;;;;4989831;28;20236;-80
2022/03/16 02:43:46;;;;;;;103.80;11.07;;;;;;;;;;4988183;28;20725;-81
2022/03/16 02:46:14;;;;;;;63.20;11.13;;;;;;;;;;4988282;28;20244;-80
2022/03/16 02:48:41;;;;;;;91.93;11.97;;;;;;;;;;4987933;28;20808;-81
2022/03/16 02:51:08;;;;;;;95.70;11.17;;;;;;;;;;4983878;28;20264;-81
2022/03/16 02:53:35;;;;;;;94.37;11.97;;;;;;;;;;4983000;28;20312;-80
2022/03/16 02:56:02;;;;;;;84.37;10.17;;;;;;;;;;4985441;28;20273;-80
2022/03/16 02:58:31;;;;;;;53.67;10.93;;;;;;;;;;4981603;28;20268;-80
2022/03/16 03:00:58;;;;;;;49.20;10.47;;;;;;;;;;4982843;28;20603;-80
2022/03/16 03:03:25;;;;;;;73.97;10.37;;;;;;;;;;4982807;28;20320;-81
2022/03/16 03:05:53;;;;;;;66.63;10.70;;;;;;;;;;4986325;28;20216;-82
2022/03/16 03:08:20;;;;;;;68.10;10.77;;;;;;;;;;4982618;28;20223;-80
2022/03/16 03:10:48;;;;;;;56.77;11.23;;;;;;;;;;4987001;28;20217;-81
2022/03/16 03:13:15;;;;;;;79.83;11.10;;;;;;;;;;4984369;28;20267;-82
2022/03/16 03:15:44;;;;;;;57.00;11.23;;;;;;;;;;4985125;28;20328;-80
2022/03/16 03:18:11;;;;;;;42.67;10.20;;;;;;;;;;4985299;28;20215;-81
2022/03/16 03:20:39;;;;;;;65.17;11.23;;;;;;;;;;4983679;28;20280;-81
2022/03/16 03:23:06;;;;;;;50.93;10.83;;;;;;;;;;4979145;28;20221;-81
2022/03/16 03:25:33;;;;;;;56.00;9.80;;;;;;;;;;4981180;28;20776;-82
2022/03/16 03:28:01;;;;;;;48.13;10.20;;;;;;;;;;4982091;28;20211;-77
2022/03/16 03:30:28;;;;;;;49.03;10.20;;;;;;;;;;4978524;28;20252;-79
2022/03/16 03:32:57;;;;;;;59.53;10.60;;;;;;;;;;4977610;28;20204;-78
2022/03/16 03:35:24;;;;;;;46.93;10.40;;;;;;;;;;4975706;28;20211;-79
2022/03/16 03:37:54;;;;;;;45.47;10.57;;;;;;;;;;4980257;28;20234;-78
2022/03/16 03:40:21;;;;;;;55.87;10.67;;;;;;;;;;4978825;28;20197;-78
2022/03/16 03:42:49;;;;;;;55.27;10.80;;;;;;;;;;4979139;28;20209;-80
2022/03/16 03:45:16;;;;;;;44.33;9.83;;;;;;;;;;4979217;28;20583;-80
2022/03/16 03:47:43;;;;;;;46.93;9.77;;;;;;;;;;4977364;28;20602;-77
2022/03/16 03:50:12;;;;;;;74.07;11.40;;;;;;;;;;4981774;28;20331;-81
2022/03/16 03:52:39;;;;;;;97.13;10.73;;;;;;;;;;4980196;28;20292;-78
2022/03/16 03:55:07;;;;;;;63.73;10.87;;;;;;;;;;4977694;28;20764;-80
2022/03/16 03:57:34;;;;;;;63.80;10.10;;;;;;;;;;4979975;28;20287;-77
2022/03/16 04:00:01;;;;;;;75.20;11.73;;;;;;;;;;4982249;28;20236;-81
2022/03/16 04:02:28;;;;;;;48.03;10.07;;;;;;;;;;4977920;28;20667;-78
2022/03/16 04:04:56;;;;;;;54.63;10.03;;;;;;;;;;4979750;28;20249;-78
2022/03/16 04:07:24;;;;;;;72.37;15.17;;;;;;;;;;4978894;28;20232;-79
2022/03/16 04:09:53;;;;;;;54.20;10.23;;;;;;;;;;4982250;28;20256;-76
2022/03/16 04:12:20;;;;;;;39.77;9.57;;;;;;;;;;4980624;28;20241;-78
2022/03/16 04:14:47;;;;;;;63.47;10.60;;;;;;;;;;4981104;28;20253;-81
2022/03/16 04:17:14;;;;;;;60.97;11.40;;;;;;;;;;4981672;28;20327;-76
2022/03/16 04:19:42;;;;;;;61.63;11.13;;;;;;;;;;4981515;28;20296;-78
2022/03/16 04:22:10;;;;;;;54.90;10.70;;;;;;;;;;4977591;28;20780;-78
2022/03/16 04:24:38;;;;;;;50.53;10.37;;;;;;;;;;4976733;28;20678;-77
2022/03/16 04:27:06;;;;;;;49.03;9.63;;;;;;;;;;4977494;28;20216;-79
2022/03/16 04:29:33;;;;;;;35.77;9.70;;;;;;;;;;4978583;28;20312;-77
2022/03/16 04:32:00;;;;;;;74.10;9.73;;;;;;;;;;4982085;28;20219;-78
2022/03/16 04:34:27;;;;;;;70.17;10.57;;;;;;;;;;4978844;28;20630;-78
2022/03/16 04:36:55;;;;;;;63.33;10.33;;;;;;;;;;4976477;28;20213;-77
2022/03/16 04:39:22;;;;;;;50.83;9.40;;;;;;;;;;4977882;28;20285;-80
2022/03/16 04:41:50;;;;;;;66.60;10.90;;;;;;;;;;4978815;28;20296;-80
2022/03/16 04:44:19;;;;;;;58.13;9.63;;;;;;;;;;4975925;28;20225;-80
2022/03/16 04:46:46;;;;;;;53.90;10.13;;;;;;;;;;4974967;28;20664;-80
2022/03/16 04:49:13;;;;;;;79.23;11.13;;;;;;;;;;4976203;28;20237;-77
2022/03/16 04:51:40;;;;;;;50.33;10.03;;;;;;;;;;4975465;28;20291;-78
2022/03/16 04:54:08;;;;;;;105.67;10.53;;;;;;;;;;4976083;28;20228;-77
2022/03/16 04:56:35;;;;;;;47.53;10.23;;;;;;;;;;4976114;28;20201;-78
2022/03/16 04:59:04;;;;;;;68.90;10.70;;;;;;;;;;4979784;28;20569;-78
2022/03/16 05:01:31;;;;;;;49.33;9.97;;;;;;;;;;4983101;28;20197;-80
2022/03/16 05:03:58;;;;;;;78.87;11.07;;;;;;;;;;4990103;28;20232;-81
2022/03/16 05:06:26;;;;;;;40.43;10.37;;;;;;;;;;4987872;28;20233;-80
2022/03/16 05:08:53;;;;;;;34.80;9.33;;;;;;;;;;4983195;28;20330;-79
2022/03/16 05:11:22;;;;;;;38.30;10.13;;;;;;;;;;4981299;28;20240;-81
2022/03/16 05:13:50;;;;;;;106.37;12.97;;;;;;;;;;4980720;28;20280;-80
2022/03/16 05:16:18;;;;;;;30.63;10.53;;;;;;;;;;4977120;28;20707;-76
2022/03/16 05:18:46;;;;;;;61.63;11.50;;;;;;;;;;4977230;28;20853;-79
2022/03/16 05:21:13;;;;;;;52.73;11.13;;;;;;;;;;4977825;28;20296;-76
2022/03/16 05:23:41;;;;;;;71.27;12.17;;;;;;;;;;4978629;28;20232;-78
2022/03/16 05:26:09;;;;;;;92.87;11.87;;;;;;;;;;4981398;28;20202;-77
2022/03/16 05:28:36;;;;;;;50.10;10.53;;;;;;;;;;4981577;28;20208;-80
2022/03/16 05:31:03;;;;;;;42.30;9.93;;;;;;;;;;4981388;28;20236;-77
2022/03/16 05:33:32;;;;;;;81.60;10.40;;;;;;;;;;4975814;28;20704;-81
2022/03/16 05:35:59;;;;;;;58.37;10.00;;;;;;;;;;4977940;28;20251;-78
2022/03/16 05:38:26;;;;;;;72.60;9.67;;;;;;;;;;4980818;28;20617;-78
2022/03/16 05:40:53;;;;;;;50.17;10.47;;;;;;;;;;4978638;28;20690;-82
2022/03/16 05:43:22;;;;;;;58.17;10.20;;;;;;;;;;4973373;28;20241;-81
2022/03/16 05:45:50;;;;;;;75.80;10.10;;;;;;;;;;4973290;28;20699;-80
2022/03/16 05:48:18;;;;;;;27.30;9.70;;;;;;;;;;4975960;28;20204;-79
2022/03/16 05:50:46;;;;;;;63.87;10.80;;;;;;;;;;4979874;28;20242;-81
2022/03/16 05:53:15;;;;;;;94.50;12.07;;;;;;;;;;4979131;28;20231;-83
2022/03/16 05:55:42;;;;;;;29.77;10.30;;;;;;;;;;4980386;28;20284;-81
2022/03/16 05:58:09;;;;;;;68.07;10.90;;;;;;;;;;4979464;28;20667;-79
2022/03/16 06:00:39;;;;;;;39.67;10.67;;;;;;;;;;4979811;28;20734;-78
2022/03/16 06:03:07;;;;;;;35.70;9.53;;;;;;;;;;4982514;28;20221;-78
2022/03/16 06:05:34;;;;;;;49.40;10.83;;;;;;;;;;4979579;28;20681;-78
2022/03/16 06:08:03;;;;;;;37.17;9.80;;;;;;;;;;4979793;28;20231;-77
2022/03/16 06:10:30;;;;;;;47.97;10.80;;;;;;;;;;4987637;28;20328;-76
2022/03/16 06:12:58;;;;;;;55.33;10.93;;;;;;;;;;4984204;28;20320;-80
2022/03/16 06:15:26;;;;;;;24.07;9.67;;;;;;;;;;4978335;28;20650;-79
2022/03/16 06:17:53;;;;;;;28.67;10.50;;;;;;;;;;4984322;28;20237;-80
2022/03/16 06:20:20;;;;;;;22.47;9.37;;;;;;;;;;4983512;28;20200;-76
2022/03/16 06:22:48;;;;;;;28.53;10.80;;;;;;;;;;4992461;28;20244;-80
2022/03/16 06:25:16;;;;;;;24.57;10.03;;;;;;;;;;4985197;28;20253;-79
2022/03/16 06:27:43;;;;;;;24.63;10.03;;;;;;;;;;4985400;28;20697;-79
2022/03/16 06:30:11;;;;;;;26.17;9.23;;;;;;;;;;4986115;28;20255;-81
2022/03/16 06:32:38;;;;;;;38.27;13.87;;;;;;;;;;4984133;28;20208;-79
2022/03/16 06:35:06;;;;;;;39.57;11.80;;;;;;;;;;4983540;28;20229;-78
2022/03/16 06:37:33;;;;;;;56.53;12.07;;;;;;;;;;4983055;28;20214;-77
2022/03/16 06:40:01;;;;;;;32.30;11.03;;;;;;;;;;4979605;28;20304;-78
2022/03/16 06:42:29;;;;;;;49.60;11.40;;;;;;;;;;4980196;28;20292;-77
2022/03/16 06:44:56;;;;;;;44.00;10.37;;;;;;;;;;4977483;28;20774;-78
2022/03/16 06:47:24;;;;;;;40.30;11.23;;;;;;;;;;4981161;28;20938;-77
2022/03/16 06:49:51;;;;;;;42.37;9.40;;;;;;;;;;4978281;28;20264;-78
2022/03/16 06:52:18;;;;;;;28.30;9.83;;;;;;;;;;4978094;28;20264;-78
2022/03/16 06:54:45;;;;;;;24.30;10.67;;;;;;;;;;4977411;28;20253;-77
2022/03/16 06:57:12;;;;;;;43.87;10.13;;;;;;;;;;4980310;28;20589;-77
2022/03/16 06:59:42;;;;;;;48.67;10.17;;;;;;;;;;4981116;28;20204;-77
2022/03/16 07:02:09;;;;;;;48.13;9.57;;;;;;;;;;4980988;28;20817;-81
2022/03/16 07:04:37;;;;;;;28.33;9.87;;;;;;;;;;4981382;28;20832;-79
2022/03/16 07:07:04;;;;;;;31.10;9.60;;;;;;;;;;4985763;28;20201;-82
2022/03/16 07:09:32;;;;;;;40.87;10.60;;;;;;;;;;4981916;28;20233;-81
2022/03/16 07:11:59;;;;;;;34.43;9.50;;;;;;;;;;4982939;28;20233;-80
2022/03/16 07:14:33;;;;;;;60.93;9.77;;;;;;;;;;4982972;28;20563;-81
2022/03/16 07:17:02;;;;;;;24.00;9.27;;;;;;;;;;4982686;28;20214;-80
2022/03/16 07:19:30;;;;;;;70.83;10.10;;;;;;;;;;4982998;28;20248;-79
2022/03/16 07:21:58;;;;;;;40.70;12.07;;;;;;;;;;4978252;28;20207;-79
2022/03/16 07:24:26;;;;;;;61.83;10.00;;;;;;;;;;4984711;28;20264;-80
2022/03/16 07:26:55;;;;;;;29.00;9.43;;;;;;;;;;4982397;28;20220;-77
2022/03/16 07:29:23;;;;;;;37.20;9.37;;;;;;;;;;4979437;28;20212;-77
2022/03/16 07:31:50;;;;;;;35.17;11.00;;;;;;;;;;4985820;28;20224;-77
2022/03/16 07:34:19;;;;;;;37.53;11.03;;;;;;;;;;4981944;28;20231;-76
2022/03/16 07:36:46;;;;;;;46.20;10.70;;;;;;;;;;4984422;28;20238;-78
2022/03/16 07:39:13;;;;;;;30.10;9.00;;;;;;;;;;4981811;28;20225;-76
2022/03/16 07:41:41;;;;;;;33.97;9.67;;;;;;;;;;4982264;28;20284;-77
2022/03/16 07:44:08;;;;;;;34.43;10.80;;;;;;;;;;4977532;28;20231;-77
2022/03/16 07:46:36;;;;;;;32.20;9.60;;;;;;;;;;4981776;28;20777;-78
2022/03/16 07:49:07;;;;;;;40.50;9.90;;;;;;;;;;4982113;28;20217;-77
2022/03/16 07:51:35;;;;;;;36.60;10.27;;;;;;;;;;4984473;28;20694;-78
2022/03/16 07:54:03;;;;;;;32.53;11.43;;;;;;;;;;4980023;28;20842;-78
2022/03/16 07:56:30;;;;;;;39.20;11.03;;;;;;;;;;4979710;28;20288;-77
2022/03/16 07:59:01;;;;;;;47.07;12.63;;;;;;;;;;4976316;28;20616;-77
2022/03/16 08:01:31;;;;;;;34.67;12.07;;;;;;;;;;4979222;28;20198;-79
2022/03/16 08:03:58;;;;;;;49.63;11.33;;;;;;;;;;4981718;28;20723;-79
2022/03/16 08:06:25;;;;;;;35.60;11.60;;;;;;;;;;4980399;28;20232;-78
2022/03/16 08:08:54;;;;;;;36.37;12.40;;;;;;;;;;4981731;28;20225;-79
2022/03/16 08:11:22;;;;;;;53.97;14.63;;;;;;;;;;4980136;28;20647;-79
2022/03/16 08:13:49;;;;;;;46.87;12.57;;;;;;;;;;4973482;28;20227;-79
2022/03/16 08:16:16;;;;;;;41.83;12.03;;;;;;;;;;4973869;28;20554;-80
2022/03/16 08:18:44;;;;;;;49.20;12.77;;;;;;;;;;4976479;28;20280;-81
2022/03/16 08:21:11;;;;;;;33.27;12.10;;;;;;;;;;4984585;28;20678;-78
2022/03/16 08:23:39;;;;;;;39.80;12.87;;;;;;;;;;4978783;28;20260;-82
2022/03/16 08:26:08;;;;;;;38.70;12.43;;;;;;;;;;4985822;28;20220;-81
2022/03/16 08:28:35;;;;;;;41.63;13.60;;;;;;;;;;4984072;28;20224;-83
2022/03/16 08:31:02;;;;;;;28.33;12.03;;;;;;;;;;4979998;28;20245;-77
2022/03/16 08:33:29;;;;;;;39.33;12.13;;;;;;;;;;4975247;28;20674;-78
2022/03/16 08:35:57;;;;;;;53.27;12.80;;;;;;;;;;4973061;28;20209;-79
2022/03/16 08:38:24;;;;;;;46.07;12.57;;;;;;;;;;4978845;28;20310;-78
2022/03/16 08:40:52;;;;;;;41.97;12.07;;;;;;;;;;4977304;28;20280;-79
2022/03/16 08:43:20;;;;;;;32.27;12.63;;;;;;;;;;4984207;28;20248;-78
2022/03/16 08:45:47;;;;;;;38.93;12.43;;;;;;;;;;4986762;28;20648;-78
2022/03/16 08:48:17;;;;;;;29.07;13.07;;;;;;;;;;4977760;28;20300;-77
2022/03/16 08:50:45;;;;;;;26.37;11.83;;;;;;;;;;4976910;28;20253;-78
2022/03/16 08:53:12;;;;;;;26.23;12.47;;;;;;;;;;4978682;28;20309;-78
2022/03/16 08:55:39;;;;;;;27.57;12.33;;;;;;;;;;4974574;28;20860;-78
2022/03/16 08:58:06;;;;;;;26.30;12.67;;;;;;;;;;4975679;28;20336;-78
2022/03/16 09:00:36;;;;;;;28.30;13.70;;;;;;;;;;4974045;28;20256;-77
2022/03/16 09:05:55;;;;;;;32.50;14.60;;;;;;;;;;4981063;28;20561;-79
2022/03/16 09:08:23;;;;;;;30.77;15.03;;;;;;;;;;4981349;28;20232;-77
2022/03/16 09:10:50;;;;;;;32.43;14.30;;;;;;;;;;4975714;28;20221;-77
2022/03/16 09:13:19;;;;;;;30.73;14.20;;;;;;;;;;4974795;28;20228;-77
2022/03/16 09:15:51;;;;;;;31.07;14.50;;;;;;;;;;4978664;28;20410;-77
2022/03/16 09:18:19;;;;;;;31.73;14.93;;;;;;;;;;4978942;28;20209;-77
2022/03/16 09:20:47;;;;;;;26.20;13.70;;;;;;;;;;4976837;28;20224;-78
2022/03/16 09:23:14;;;;;;;24.83;13.63;;;;;;;;;;4977835;28;20826;-77
2022/03/16 09:25:42;;;;;;;23.80;12.80;;;;;;;;;;4975821;28;20290;-82
2022/03/16 09:28:09;;;;;;;20.27;11.73;;;;;;;;;;4979592;28;20205;-77
2022/03/16 09:30:36;;;;;;;23.20;11.80;;;;;;;;;;4980048;28;20216;-76
2022/03/16 09:33:07;;;;;;;20.53;11.03;;;;;;;;;;4974343;28;20235;-80
2022/03/16 09:35:35;;;;;;;23.00;11.17;;;;;;;;;;4980570;28;20213;-76
2022/03/16 09:38:02;;;;;;;21.27;10.53;;;;;;;;;;4981532;28;20209;-79
2022/03/16 09:40:29;;;;;;;21.00;11.10;;;;;;;;;;4981892;28;20287;-78
2022/03/16 09:42:57;;;;;;;21.13;11.30;;;;;;;;;;4981037;28;20263;-77
2022/03/16 09:45:28;;;;;;;20.37;10.37;;;;;;;;;;4979182;28;20206;-78
2022/03/16 09:47:56;;;;;;;19.33;9.90;;;;;;;;;;4971706;28;20211;-78
2022/03/16 09:50:25;;;;;;;22.20;10.50;;;;;;;;;;4981376;28;20296;-77
2022/03/16 09:52:52;;;;;;;22.63;10.73;;;;;;;;;;4976025;28;20232;-78
2022/03/16 09:55:23;;;;;;;22.27;11.33;;;;;;;;;;4976679;28;20202;-78
2022/03/16 09:57:50;;;;;;;19.40;10.63;;;;;;;;;;4981987;28;20205;-80
2022/03/16 10:00:18;;;;;;;23.23;10.93;;;;;;;;;;4981807;28;20261;-79
2022/03/16 10:02:46;;;;;;;21.83;10.73;;;;;;;;;;4979730;28;20727;-79
2022/03/16 10:05:16;;;;;;;21.23;10.60;;;;;;;;;;4995137;28;20209;-82
2022/03/16 10:07:48;;;;;;;20.27;10.80;;;;;;;;;;4986835;28;20224;-80
2022/03/16 10:13:15;;;;;;;18.63;10.13;;;;;;;;;;4988434;28;20730;-80
2022/03/16 10:15:43;;;;;;;20.50;10.67;;;;;;;;;;4983788;28;20219;-81
2022/03/16 10:18:10;;;;;;;21.57;10.50;;;;;;;;;;4990117;28;20213;-79
2022/03/16 10:20:39;;;;;;;20.23;10.87;;;;;;;;;;4977139;28;20272;-79
2022/03/16 10:23:10;;;;;;;18.43;9.97;;;;;;;;;;4977504;28;20279;-78
2022/03/16 10:25:38;;;;;;;20.40;11.03;;;;;;;;;;4978357;28;20215;-79
2022/03/16 10:28:10;;;;;;;19.87;10.03;;;;;;;;;;4975401;28;20621;-79
2022/03/16 10:30:38;;;;;;;19.53;10.67;;;;;;;;;;4978926;28;20300;-79
2022/03/16 10:33:05;;;;;;;23.90;10.53;;;;;;;;;;4978770;28;20233;-79
2022/03/16 10:35:33;;;;;;;19.70;9.77;;;;;;;;;;4980164;28;20288;-79
2022/03/16 10:38:13;;;;;;;20.50;10.87;;;;;;;;;;4988837;22;20229;-79
2022/03/16 10:40:41;;;;;;;19.93;10.97;;;;;;;;;;4977198;28;20322;-79
2022/03/16 10:48:38;;;;;;;22.57;11.47;;;;;;;;;;4971756;28;20669;-78
2022/03/16 10:51:05;;;;;;;21.57;11.33;;;;;;;;;;4979254;28;20269;-78
2022/03/16 10:53:35;;;;;;;22.37;12.03;;;;;;;;;;4981890;28;20316;-80
2022/03/16 10:56:02;;;;;;;26.30;12.53;;;;;;;;;;4980070;28;20220;-80
2022/03/16 10:58:29;;;;;;;24.03;12.10;;;;;;;;;;4985376;28;20212;-79
2022/03/16 11:00:58;;;;;;;24.57;12.43;;;;;;;;;;4979896;28;20296;-79
2022/03/16 11:03:26;;;;;;;24.70;12.50;;;;;;;;;;4977517;28;20228;-79
2022/03/16 11:05:57;;;;;;;23.20;12.03;;;;;;;;;;4979501;28;20209;-78
2022/03/16 11:08:25;;;;;;;21.87;11.40;;;;;;;;;;4976492;28;20205;-78
2022/03/16 11:10:54;;;;;;;22.73;12.23;;;;;;;;;;4975071;28;20248;-77
2022/03/16 11:13:32;;;;;;;22.20;12.00;;;;;;;;;;4977626;28;20498;-80
2022/03/16 11:16:00;;;;;;;22.67;11.50;;;;;;;;;;4980655;28;20779;-80
2022/03/16 11:18:28;;;;;;;23.00;12.10;;;;;;;;;;4985899;28;20248;-78
2022/03/16 11:20:56;;;;;;;22.00;11.47;;;;;;;;;;4981432;28;20366;-80
2022/03/16 11:26:27;;;;;;;24.27;11.87;;;;;;;;;;4982789;28;20204;-79
2022/03/16 11:29:00;;;;;;;23.93;12.20;;;;;;;;;;4980539;28;20281;-79
2022/03/16 11:31:30;;;;;;;23.10;11.97;;;;;;;;;;4982503;28;20240;-79
2022/03/16 11:34:00;;;;;;;22.13;12.00;;;;;;;;;;4983877;28;20231;-79
2022/03/16 11:36:31;;;;;;;23.90;12.67;;;;;;;;;;4980638;28;20204;-78
2022/03/16 11:38:59;;;;;;;25.47;12.80;;;;;;;;;;4985945;28;20248;-79
2022/03/16 11:41:29;;;;;;;25.43;12.63;;;;;;;;;;4985597;28;20299;-80
2022/03/16 11:44:22;;;;;;;26.47;12.73;;;;;;;;;;4987425;28;20343;-78
2022/03/16 11:46:49;;;;;;;22.20;11.53;;;;;;;;;;4986209;28;20198;-80
2022/03/16 11:49:26;;;;;;;21.43;11.60;;;;;;;;;;4987299;28;20232;-81
2022/03/16 11:51:59;;;;;;;22.47;11.90;;;;;;;;;;4979404;28;20770;-79
2022/03/16 11:54:40;;;;;;;23.87;11.67;;;;;;;;;;4982389;28;20239;-80
2022/03/16 11:57:11;;;;;;;22.47;12.40;;;;;;;;;;4978689;28;20197;-79
2022/03/16 11:59:44;;;;;;;21.93;11.77;;;;;;;;;;4979415;28;20265;-81
2022/03/16 12:02:18;;;;;;;22.07;11.60;;;;;;;;;;4979902;28;20213;-80
2022/03/16 12:04:47;;;;;;;23.67;12.50;;;;;;;;;;4980153;28;20781;-80
2022/03/16 12:07:16;;;;;;;21.97;11.93;;;;;;;;;;4981752;28;20512;-80
2022/03/16 12:09:45;;;;;;;24.77;11.27;;;;;;;;;;4977379;28;20212;-80
2022/03/16 12:15:18;;;;;;;25.47;11.60;;;;;;;;;;4971493;28;20252;-77
2022/03/16 12:18:04;;;;;;;23.37;12.47;;;;;;;;;;4981957;28;20205;-78
2022/03/16 12:20:37;;;;;;;23.23;11.93;;;;;;;;;;4979426;28;20296;-77
2022/03/16 12:23:09;;;;;;;22.40;12.43;;;;;;;;;;4981659;28;20280;-77
2022/03/16 12:25:37;;;;;;;23.07;12.10;;;;;;;;;;4977690;28;20268;-77
2022/03/16 12:30:52;;;;;;;23.30;11.17;;;;;;;;;;4978910;28;20279;-77
2022/03/16 12:33:22;;;;;;;20.90;10.80;;;;;;;;;;4976700;28;20643;-77
2022/03/16 12:35:50;;;;;;;23.90;12.77;;;;;;;;;;4976079;28;20260;-77
2022/03/16 12:38:29;;;;;;;22.40;11.27;;;;;;;;;;4976552;28;21008;-78
2022/03/16 12:43:46;;;;;;;20.17;11.70;;;;;;;;;;4974532;28;20616;-76
2022/03/16 12:46:18;;;;;;;22.33;12.20;;;;;;;;;;4982328;28;20198;-78
2022/03/16 12:48:49;;;;;;;20.33;11.63;;;;;;;;;;4992077;28;20680;-77
2022/03/16 12:51:33;;;;;;;21.80;11.57;;;;;;;;;;4984219;28;20218;-77
2022/03/16 12:54:00;;;;;;;22.80;12.10;;;;;;;;;;4980283;28;20588;-78
2022/03/16 12:56:28;;;;;;;24.97;11.67;;;;;;;;;;4985297;28;20205;-78
2022/03/16 12:58:59;;;;;;;21.20;11.47;;;;;;;;;;4986109;28;20232;-78
2022/03/16 13:01:27;;;;;;;24.27;12.90;;;;;;;;;;4987236;28;20206;-78
2022/03/16 13:04:00;;;;;;;23.70;12.40;;;;;;;;;;4980201;28;20732;-77
2022/03/16 13:06:32;;;;;;;20.43;11.03;;;;;;;;;;4986214;28;20592;-77
2022/03/16 13:08:59;;;;;;;22.03;12.10;;;;;;;;;;4972854;28;20216;-77
2022/03/16 13:11:30;;;;;;;22.33;11.90;;;;;;;;;;4977238;28;20202;-79
2022/03/16 13:14:02;;;;;;;20.97;11.47;;;;;;;;;;4979282;28;20229;-79
2022/03/16 13:16:35;;;;;;;22.33;11.47;;;;;;;;;;4976215;28;20287;-77
2022/03/16 13:19:03;;;;;;;19.53;10.83;;;;;;;;;;4974584;28;21111;-78
2022/03/16 13:21:30;;;;;;;23.60;11.70;;;;;;;;;;4971917;28;20212;-78
2022/03/16 13:24:01;;;;;;;21.37;11.20;;;;;;;;;;4974414;28;20236;-78
2022/03/16 13:26:29;;;;;;;19.13;11.07;;;;;;;;;;4973525;28;20201;-78
2022/03/16 13:28:57;;;;;;;19.77;10.57;;;;;;;;;;4970317;28;20213;-78
2022/03/16 13:31:27;;;;;;;18.73;10.47;;;;;;;;;;4973574;28;20341;-79
2022/03/16 13:33:54;;;;;;;21.57;10.77;;;;;;;;;;4980024;28;20232;-78
2022/03/16 13:36:32;;;;;;;20.97;10.77;;;;;;;;;;4976524;28;20244;-79
2022/03/16 13:39:00;;;;;;;22.00;11.40;;;;;;;;;;4974962;28;20208;-78
2022/03/16 13:41:27;;;;;;;20.43;10.83;;;;;;;;;;4974121;28;20292;-78
2022/03/16 13:44:05;;;;;;;19.13;10.53;;;;;;;;;;4973363;28;20226;-77
2022/03/16 13:46:40;;;;;;;23.13;11.70;;;;;;;;;;4971806;28;22056;-78
2022/03/16 13:49:15;;;;;;;19.27;10.60;;;;;;;;;;4971999;28;20301;-76
2022/03/16 13:52:02;;;;;;;18.43;9.87;;;;;;;;;;4972197;28;20223;-77
2022/03/16 13:54:29;;;;;;;21.30;11.57;;;;;;;;;;4969126;28;20241;-77
2022/03/16 13:57:14;;;;;;;21.03;10.43;;;;;;;;;;4971518;28;20219;-77
2022/03/16 13:59:42;;;;;;;18.40;10.87;;;;;;;;;;4973939;28;20208;-78
2022/03/16 14:02:12;;;;;;;25.20;12.33;;;;;;;;;;4979728;28;20663;-77
2022/03/16 14:04:43;;;;;;;21.50;10.90;;;;;;;;;;4974791;28;20715;-79
2022/03/16 14:07:23;;;;;;;24.03;11.27;;;;;;;;;;4971908;28;20213;-77
2022/03/16 14:09:53;;;;;;;20.37;10.43;;;;;;;;;;4973996;28;20552;-77
2022/03/16 14:12:22;;;;;;;18.97;10.03;;;;;;;;;;4976616;28;20235;-79
2022/03/16 14:14:50;;;;;;;21.63;11.27;;;;;;;;;;4972089;28;20225;-80
2022/03/16 14:17:18;;;;;;;20.33;11.00;;;;;;;;;;4976132;28;20205;-78
2022/03/16 14:19:46;;;;;;;23.37;11.77;;;;;;;;;;4974612;28;20210;-78
2022/03/16 14:22:18;;;;;;;19.07;10.43;;;;;;;;;;4976472;28;20285;-78
2022/03/16 14:24:46;;;;;;;16.73;9.87;;;;;;;;;;4975417;28;20221;-80
2022/03/16 14:27:21;;;;;;;20.37;10.93;;;;;;;;;;4978671;28;20245;-79
2022/03/16 14:29:49;;;;;;;16.30;9.57;;;;;;;;;;4985475;28;20581;-77
2022/03/16 14:32:20;;;;;;;21.40;11.00;;;;;;;;;;4981219;28;20239;-77
2022/03/16 14:34:49;;;;;;;18.87;10.63;;;;;;;;;;4978298;28;20236;-77
2022/03/16 14:37:16;;;;;;;22.13;10.87;;;;;;;;;;4979596;28;20303;-78
2022/03/16 14:39:44;;;;;;;19.53;10.90;;;;;;;;;;4978611;28;20210;-79
2022/03/16 14:42:11;;;;;;;23.17;11.40;;;;;;;;;;4978792;28;20228;-77
2022/03/16 14:44:38;;;;;;;18.57;10.30;;;;;;;;;;4980067;28;20772;-78
2022/03/16 14:47:05;;;;;;;20.63;11.13;;;;;;;;;;4982922;28;20656;-79
2022/03/16 14:49:33;;;;;;;20.73;11.37;;;;;;;;;;4980992;28;20273;-78